Sete Barras, Brazil
Current Conditions -  °F | °C
As of 2:00 AM on Monday 24 Nov 2014 (Local Time) from SBSP Reporting Station
Haze Haze  
Wind Chill: 64°   Ceiling: 400
Heat Index: 64°   Visibility: 3mi
Dew Point: 63°   Wind: 3mph
Humidity: 94%   Direction: 130°SE
Pressure: 30.09"   Gusts: NA
Location:  24.38°S, 47.93°W
Report Text: SBSP 240400Z 13003KT 5000 BR SCT002 OVC004 18/17 Q1019
Loading
Personal Weather Stations






























Interactive Weather Map New forecast layout! Learn more

10-Day Weather Forecast

Advertisements
Track Severe Weather on mobile